Página principal
METAR-TAF:

METAR-TAF

Aeroportos :

El Aaiún, Marrocos

latitude: 27-10N, longitude: 013-12-59W, altura: 6 m

Observação actual do tempo

O boletim foi feito há 1 hora e 6 minutos, às 06:00 UTC
Vento 22 kt de nordeste
Temperatura 21°C
Humidade 78%
Pressão 1013 hPa
Visibilidade: 8000 m
Encobertoa uma altura de 1900 ft

METAR: GMML 120600Z 04022KT 8000 OVC019 21/17 Q1013 NOSIG

Hora: 08:06 (07:06 UTC)

Previsão

O boletim foi feito há 2 horas e 6 minutos, às 05:00 UTC
Previsão válida de 12 às 06 UTC a 13 às 12 UTC
Vento 23 kt de nordeste
Visibilidade: 8000 m
Nuvens fragmentadasa uma altura de 2000 ft

TAF: GMML 120500Z 1206/1312 04023KT 8000 BKN020 BEGM 1209/1212 NSG

Observações e previsões do tempo de mais de 4000 aeroportos (mensagens METAR e TAF).

As estações disponíveis são os pontos amarelos e vermelhos sobre o mapa.

Mova o rato sobre o mapa para ver o nome da estação.

Depois clique no ponto para visualizar as observações e previsões meteorológicas.

Para alterar o mapa : clique nos botões verdes com uma cruz preta para aumentar o zoom; no botão verde com uma pitada de zoom; ou nas setas verdes para mapas adjacentes.


METAR-TAF: